Aérodrome :
LOGIN :

S'inscrire | Disclaimer

   EN    FR    IT 

 










Légende :    VFR   VFR Marginal   IFR   IFR Intensif   IFR Très Intensif
Visi : 
Plafond : 
>= 8 km
>= 3000ft
5 à 8 km
1000 à 3000 ft
1500m à 5 km
500 à 1000 ft
800 à 1500m
200 à 500 ft
< 800m
< 200 ft
Symboles :   Orages  Brouillard  Fortes neiges  Fortes précipitations  Vent > 20 kt
SIGMETs :   Divers  Orages  Givrage  Turbulence  Onde Orograph.  Cendres Volcan.







- Altitude de l'aérodrome : 1090 ft
- Code IATA : CFE
- Voir les cartes d'approche


LFLC - Clermont-Ferrand Auvergne

DERNIER METAR :
  • 252000Z AUTO 01010KT 340V040 9999 -RA SCT006 BKN013 OVC018 07/05 Q1008 TEMPO 4000 RA BKN006 BKN015 BKN020 FEW022TCU

METARs EXPIRÉS :
  • 251930Z AUTO 01008KT 8000 -RA SCT007/// BKN011/// BKN018/// ///TCU 07/06 Q1007 TEMPO 4000 RA BKN006 BKN015 BKN020 FEW022TCU
  • 251900Z AUTO 01009KT 300V050 6000 -RA BKN008 OVC012 08/07 Q1007 TEMPO 4000 RA BKN006 BKN015 BKN020 FEW022TCU
  • 251830Z AUTO VRB02KT 5000 -RA BR OVC011 09/08 Q1006 TEMPO RA BKN006 BKN015 BKN020 FEW022TCU
  • 251800Z AUTO 03003KT 360V070 8000 -RA BKN018/// BKN038/// OVC052/// ///CB 09/07 Q1006 TEMPO 4000 RA BKN006 BKN015 BKN020 FEW022TCU
  • 251730Z AUTO 01005KT 320V040 7000 -RA FEW006/// OVC036/// ///CB 09/07 Q1006 TEMPO 4000 RA BKN006 BKN015 BKN020 FEW022TCU

TAF AMD TAF LFLC
Valide du 25 à 15h jusqu'au 26 à 15h UTC


251509Z 2515/2615 35005KT 9999 FEW010 BKN025
TEMPO 2515/2518 2000 RA BKN005 BKN013TCU FEW025CB
TEMPO 2518/2524 4000 RA BKN006 BKN015 BKN020 FEW022TCU
PROB40
TEMPO 2600/2606 RA BKN007 FEW020TCU
PROB40
TEMPO 2612/2615 SHRA SCT035TCU BKN040
ATIS : +33 4 73 62 74 38
Pas de NOTAMs connus pour ce terrain.



MET'MAP, la Météo Aéronautique d'un coup d'oeil ! - Copyright ORBIFLY Décembre 2007 - Disclaimer

ORBIFLY MET'MAP TEAM :

Programmation & Développement : Alexandra Zaïnal
Conception & Développement : Baudouin d'Aumeries
Co-Programmation & Développement : Marc-Olivier Méhu
Soutien technique & logistique : Manuel Goepfert

Contact : metmap@orbifly.com




SOURCES & CREDITS :

   NOAA